Time;durP1;ratioP1;P1;durP2;ratioP2;P2;SDS_P1;SDS_P2;PMS_P1;PMS_P2;Temp;Humidity;BMP_temperature;BMP_pressure;BME280_temperature;BME280_humidity;BME280_pressure;Samples;Min_cycle;Max_cycle;Signal;HPM_P1;HPM_P2
2023/02/03 00:05:02;;;;;;;27.55;13.73;;;;;;;6.08;91.81;101044.47;10412975;28;20441;-80
2023/02/03 00:10:06;;;;;;;41.05;25.45;;;;;;;6.18;91.94;101035.06;10408512;28;20045;-80
2023/02/03 00:15:09;;;;;;;30.63;16.58;;;;;;;6.07;91.80;101021.41;10396665;28;20069;-80
2023/02/03 00:20:13;;;;;;;38.50;22.48;;;;;;;6.15;91.80;101014.72;10413393;28;20041;-80
2023/02/03 00:25:17;;;;;;;35.42;19.02;;;;;;;6.12;91.49;101043.38;10424681;28;20038;-80
2023/02/03 00:30:20;;;;;;;33.65;20.95;;;;;;;6.33;89.59;101030.72;10409994;28;20396;-80
2023/02/03 00:35:26;;;;;;;38.90;22.58;;;;;;;6.47;89.98;101033.50;10398519;28;20041;-80
2023/02/03 00:40:29;;;;;;;35.67;22.33;;;;;;;6.34;90.09;101032.44;10385213;28;20030;-80
2023/02/03 00:45:32;;;;;;;39.15;23.35;;;;;;;6.42;90.28;101027.56;10394027;28;20136;-78
2023/02/03 00:50:36;;;;;;;37.35;23.73;;;;;;;6.07;91.39;101022.28;10400867;28;20046;-79
2023/02/03 00:55:39;;;;;;;25.50;15.02;;;;;;;6.14;90.22;101038.81;10384090;28;20112;-78
2023/02/03 01:00:42;;;;;;;32.88;21.13;;;;;;;6.39;88.12;101035.75;10378339;28;20054;-78
2023/02/03 01:05:46;;;;;;;34.92;21.58;;;;;;;6.28;88.11;101032.75;10404322;28;20053;-79
2023/02/03 01:10:49;;;;;;;28.33;19.85;;;;;;;6.40;88.46;101050.78;10406675;28;20045;-78
2023/02/03 01:15:52;;;;;;;39.63;23.27;;;;;;;6.50;88.25;101051.16;10411084;28;20468;-79
2023/02/03 01:20:56;;;;;;;33.08;22.48;;;;;;;6.35;88.21;101032.34;10405054;28;20049;-80
2023/02/03 01:26:04;;;;;;;35.13;18.42;;;;;;;6.15;88.88;101040.56;10409507;28;20070;-80
2023/02/03 01:31:11;;;;;;;28.80;19.38;;;;;;;6.26;87.22;101043.53;10399102;28;20034;-80
2023/02/03 01:36:17;;;;;;;22.88;13.40;;;;;;;6.16;88.59;101047.59;10382913;28;20042;-79
2023/02/03 01:41:21;;;;;;;38.15;23.42;;;;;;;6.43;87.32;101063.13;10391239;28;20761;-79
2023/02/03 01:46:30;;;;;;;40.45;23.55;;;;;;;6.55;86.59;101051.78;10384718;28;20046;-79
2023/02/03 01:51:35;;;;;;;34.20;22.77;;;;;;;6.34;87.34;101037.78;10397124;28;20043;-79
2023/02/03 01:56:42;;;;;;;37.13;16.65;;;;;;;6.34;87.09;101016.44;10408554;28;20038;-79
2023/02/03 02:01:46;;;;;;;31.80;18.85;;;;;;;6.44;87.39;101027.47;10394419;28;20054;-79
2023/02/03 02:06:50;;;;;;;31.67;20.40;;;;;;;6.54;86.97;101020.69;10399628;28;20045;-79
2023/02/03 02:11:53;;;;;;;29.35;17.40;;;;;;;6.35;86.31;101007.47;10393339;28;20052;-79
2023/02/03 02:17:03;;;;;;;30.67;18.83;;;;;;;6.47;86.99;100981.94;10404269;28;20105;-79
2023/02/03 02:22:13;;;;;;;34.67;21.55;;;;;;;6.56;86.41;100966.28;10403798;28;20049;-79
2023/02/03 02:27:40;;;;;;;26.00;14.57;;;;;;;6.19;87.35;100983.41;10400526;28;20049;-79
2023/02/03 02:33:02;;;;;;;21.75;14.98;;;;;;;6.07;87.16;100958.25;10385840;28;20064;-79
2023/02/03 02:38:13;;;;;;;;;;;;;;;6.35;87.01;100932.75;10418929;28;20478;-78
2023/02/03 02:43:21;;;;;;;24.98;13.73;;;;;;;6.27;86.80;100956.31;10417240;28;19928;-79
2023/02/03 02:48:32;;;;;;;30.55;19.13;;;;;;;6.65;85.54;100945.38;10393216;28;20050;-78
2023/02/03 02:53:40;;;;;;;25.38;17.02;;;;;;;6.57;84.59;100986.69;10402057;28;20100;-79
2023/02/03 02:58:48;;;;;;;22.27;11.55;;;;;;;6.66;84.91;100996.00;10417464;28;20439;-79
2023/02/03 03:03:52;;;;;;;30.00;17.35;;;;;;;6.47;85.81;100981.94;10402642;28;20041;-79
2023/02/03 03:08:59;;;;;;;23.65;14.63;;;;;;;6.56;84.60;100987.63;10402531;28;20041;-79
2023/02/03 03:14:06;;;;;;;26.38;13.95;;;;;;;6.61;84.21;100982.06;10405094;28;20038;-78
2023/02/03 03:19:16;;;;;;;21.98;10.43;;;;;;;6.26;85.91;100970.63;10409375;28;20045;-79
2023/02/03 03:24:23;;;;;;;31.88;16.63;;;;;;;6.44;84.99;100944.72;10377862;28;20046;-78
2023/02/03 03:29:30;;;;;;;23.98;13.60;;;;;;;6.44;84.78;100947.41;10394962;28;20084;-78
2023/02/03 03:34:35;;;;;;;23.27;14.15;;;;;;;6.36;84.64;100946.03;10395452;28;20045;-78
2023/02/03 03:39:47;;;;;;;18.65;13.38;;;;;;;6.21;85.91;100948.66;10399525;28;20069;-79
2023/02/03 03:44:54;;;;;;;22.02;11.90;;;;;;;6.50;84.82;100939.03;10420261;23;20056;-79
2023/02/03 03:50:00;;;;;;;27.48;16.42;;;;;;;6.74;83.24;100939.50;10410790;28;20041;-79
2023/02/03 03:55:08;;;;;;;22.92;10.95;;;;;;;6.37;84.45;100933.53;10400921;28;20049;-79
2023/02/03 04:00:14;;;;;;;22.08;10.68;;;;;;;6.52;84.23;100915.81;10410092;28;20046;-78
2023/02/03 04:05:19;;;;;;;24.70;13.57;;;;;;;6.84;82.24;100930.88;10413068;28;20045;-78
2023/02/03 04:10:28;;;;;;;23.30;11.80;;;;;;;6.67;82.76;100914.97;10414637;28;20046;-79
2023/02/03 04:15:32;;;;;;;20.35;11.65;;;;;;;6.55;82.14;100912.97;10407253;28;20065;-79
2023/02/03 04:20:37;;;;;;;18.60;9.60;;;;;;;6.70;82.13;100920.13;10399186;28;20041;-78
2023/02/03 04:25:40;;;;;;;22.25;10.55;;;;;;;6.46;82.36;100906.34;10405750;28;20072;-77
2023/02/03 04:30:42;;;;;;;22.58;11.38;;;;;;;6.61;81.91;100902.81;10409601;28;20048;-78
2023/02/03 04:35:47;;;;;;;16.83;10.60;;;;;;;6.58;82.16;100896.78;10407405;28;20423;-78
2023/02/03 04:40:50;;;;;;;20.38;9.60;;;;;;;6.65;81.27;100902.66;10405492;28;20046;-79
2023/02/03 04:45:53;;;;;;;12.95;8.25;;;;;;;6.55;81.73;100900.47;10407465;28;20050;-79
2023/02/03 04:51:01;;;;;;;22.00;8.23;;;;;;;6.35;82.40;100887.41;10406752;28;20484;-78
2023/02/03 04:56:04;;;;;;;20.90;9.77;;;;;;;6.73;80.86;100879.03;10403476;28;20060;-78
2023/02/03 05:01:09;;;;;;;10.60;7.10;;;;;;;6.51;81.38;100858.91;10402555;28;20060;-78
2023/02/03 05:06:13;;;;;;;21.85;10.60;;;;;;;6.48;82.39;100861.75;10407020;28;20052;-77
2023/02/03 05:11:16;;;;;;;13.13;6.50;;;;;;;6.59;81.34;100875.34;10402999;28;20038;-79
2023/02/03 05:16:18;;;;;;;18.95;9.65;;;;;;;6.58;81.48;100868.31;10403719;28;20041;-79
2023/02/03 05:21:23;;;;;;;15.35;6.43;;;;;;;6.49;81.65;100865.28;10384640;28;20036;-77
2023/02/03 05:26:26;;;;;;;12.75;7.57;;;;;;;6.83;80.46;100867.75;10397677;28;20576;-79
2023/02/03 05:31:28;;;;;;;17.27;9.27;;;;;;;6.51;82.63;100850.03;10402553;28;20515;-79
2023/02/03 05:36:33;;;;;;;13.70;7.05;;;;;;;6.30;82.76;100854.75;10409635;28;20049;-79
2023/02/03 05:41:53;;;;;;;11.02;7.10;;;;;;;6.39;82.16;100849.78;10395859;28;20092;-78
2023/02/03 05:47:00;;;;;;;15.85;9.55;;;;;;;6.58;81.80;100854.94;10400432;28;20404;-79
2023/02/03 05:52:04;;;;;;;15.95;7.18;;;;;;;6.76;79.97;100863.69;10399134;28;20042;-77
2023/02/03 05:57:07;;;;;;;17.85;7.25;;;;;;;6.57;81.29;100844.34;10396225;28;20485;-78
2023/02/03 06:02:09;;;;;;;13.20;7.57;;;;;;;6.71;81.53;100847.06;10402091;28;20067;-79
2023/02/03 06:07:14;;;;;;;17.30;9.27;;;;;;;6.64;83.10;100848.41;10396645;28;20048;-79
2023/02/03 06:12:16;;;;;;;13.98;9.55;;;;;;;6.05;87.02;100850.78;10405742;28;20034;-78
2023/02/03 06:17:19;;;;;;;16.45;10.23;;;;;;;6.08;89.61;100855.94;10403549;28;20044;-79
2023/02/03 06:22:24;;;;;;;15.85;8.82;;;;;;;5.72;90.67;100835.66;10390170;28;20034;-78
2023/02/03 06:27:27;;;;;;;16.40;8.60;;;;;;;5.54;93.09;100842.00;10400762;28;20088;-79
2023/02/03 06:32:30;;;;;;;24.50;10.68;;;;;;;5.95;91.97;100857.56;10393883;28;20455;-79
2023/02/03 06:37:36;;;;;;;18.05;9.02;;;;;;;5.98;91.44;100861.88;10396660;28;20069;-78
2023/02/03 06:42:39;;;;;;;21.50;11.02;;;;;;;5.72;93.83;100858.81;10391387;28;20081;-79
2023/02/03 06:47:42;;;;;;;18.67;10.15;;;;;;;5.65;93.52;100860.06;10391859;28;20062;-79
2023/02/03 06:52:49;;;;;;;20.95;11.32;;;;;;;5.61;94.41;100867.38;10402123;28;20071;-78
2023/02/03 06:57:51;;;;;;;18.48;8.50;;;;;;;5.97;92.68;100860.16;10396174;28;20080;-78
2023/02/03 07:02:55;;;;;;;23.55;13.80;;;;;;;5.92;93.76;100850.59;10395796;28;20489;-78
2023/02/03 07:07:59;;;;;;;17.92;10.73;;;;;;;5.60;95.62;100856.81;10385256;28;20133;-78
2023/02/03 07:13:03;;;;;;;17.48;9.57;;;;;;;5.71;94.85;100863.28;10400652;28;20049;-77
2023/02/03 07:18:06;;;;;;;15.45;9.93;;;;;;;5.96;93.96;100867.28;10409131;28;20049;-78
2023/02/03 07:23:10;;;;;;;20.00;12.02;;;;;;;6.10;94.06;100854.06;10404691;28;20414;-78
2023/02/03 07:28:13;;;;;;;19.52;11.25;;;;;;;6.10;94.16;100848.72;10399688;28;20531;-77
2023/02/03 07:33:16;;;;;;;11.80;6.63;;;;;;;5.74;94.85;100835.59;10404144;28;20052;-79
2023/02/03 07:38:21;;;;;;;17.27;12.32;;;;;;;6.09;94.85;100857.69;10405647;28;20045;-79
2023/02/03 07:43:24;;;;;;;18.02;10.05;;;;;;;5.82;96.07;100835.19;10408915;28;20148;-79
2023/02/03 07:48:27;;;;;;;15.85;8.63;;;;;;;5.94;94.88;100823.84;10415601;28;20037;-78
2023/02/03 07:53:32;;;;;;;15.52;10.52;;;;;;;5.87;96.08;100826.00;10417962;28;20025;-79
2023/02/03 07:58:34;;;;;;;20.42;13.20;;;;;;;6.05;95.48;100841.94;10412822;28;20041;-80
2023/02/03 08:03:37;;;;;;;23.80;12.88;;;;;;;6.06;95.23;100831.19;10409455;28;20037;-81
2023/02/03 08:08:42;;;;;;;21.88;12.35;;;;;;;6.00;95.47;100858.16;10418609;28;20048;-79
2023/02/03 08:13:45;;;;;;;17.58;9.15;;;;;;;6.08;94.62;100849.75;10419665;28;20061;-77
2023/02/03 08:18:48;;;;;;;15.13;7.65;;;;;;;6.31;93.80;100868.03;10412545;28;20058;-78
2023/02/03 08:23:52;;;;;;;14.63;8.65;;;;;;;5.93;95.90;100847.00;10375441;28;20049;-79
2023/02/03 08:28:55;;;;;;;13.73;9.25;;;;;;;6.18;94.78;100849.16;10386295;28;20136;-78
2023/02/03 08:33:58;;;;;;;11.40;8.38;;;;;;;6.18;93.64;100824.31;10385461;28;20052;-76
2023/02/03 08:39:02;;;;;;;13.90;10.05;;;;;;;6.45;92.68;100835.25;10382276;28;20057;-79
2023/02/03 08:44:05;;;;;;;23.02;11.35;;;;;;;5.80;96.19;100810.41;10387330;28;20121;-79
2023/02/03 08:49:08;;;;;;;18.05;11.80;;;;;;;6.15;95.22;100817.34;10381711;28;20106;-79
2023/02/03 08:54:12;;;;;;;20.55;11.23;;;;;;;6.00;94.48;100826.16;10387396;28;20088;-79
2023/02/03 08:59:16;;;;;;;21.58;8.60;;;;;;;6.07;94.16;100822.22;10381629;28;20049;-79
2023/02/03 09:04:23;;;;;;;19.85;10.93;;;;;;;6.55;91.67;100807.06;10378141;28;20061;-78
2023/02/03 09:09:27;;;;;;;20.85;11.60;;;;;;;6.28;91.66;100825.53;10369044;28;20063;-78
2023/02/03 09:14:31;;;;;;;17.15;10.18;;;;;;;6.53;90.04;100824.13;10378513;28;20713;-78
2023/02/03 09:19:35;;;;;;;18.38;10.23;;;;;;;6.68;89.90;100833.06;10380103;28;20152;-78
2023/02/03 09:24:40;;;;;;;13.23;8.18;;;;;;;6.12;92.72;100820.16;10373903;28;20050;-78
2023/02/03 09:29:42;;;;;;;23.10;10.75;;;;;;;6.43;93.35;100829.13;10357999;28;20579;-79
2023/02/03 09:34:45;;;;;;;24.92;11.63;;;;;;;6.42;92.57;100816.72;10373462;28;20077;-79
2023/02/03 09:39:49;;;;;;;19.27;10.23;;;;;;;6.27;92.77;100801.59;10365901;28;20050;-78
2023/02/03 09:45:05;;;;;;;24.83;10.60;;;;;;;6.27;91.80;100799.75;10375453;28;20128;-79
2023/02/03 09:50:14;;;;;;;16.98;9.05;;;;;;;6.48;91.16;100820.88;10364927;28;20081;-79
2023/02/03 09:55:29;;;;;;;26.70;12.02;;;;;;;6.59;91.32;100819.28;10372033;28;20050;-79
2023/02/03 10:00:35;;;;;;;28.48;12.23;;;;;;;6.31;92.12;100833.34;10372774;28;20049;-79
2023/02/03 10:05:54;;;;;;;18.52;8.27;;;;;;;6.14;93.87;100842.28;10375363;28;20132;-78
2023/02/03 10:11:12;;;;;;;20.40;10.70;;;;;;;6.27;95.51;100834.44;10372003;28;20077;-78
2023/02/03 10:16:38;;;;;;;19.20;9.25;;;;;;;5.97;97.50;100868.16;10372597;28;20049;-81
2023/02/03 10:21:46;;;;;;;24.77;12.57;;;;;;;6.06;97.89;100849.84;10377457;28;20057;-80
2023/02/03 10:26:50;;;;;;;27.90;12.40;;;;;;;6.29;97.43;100874.41;10366726;28;20131;-80
2023/02/03 10:31:56;;;;;;;28.40;10.68;;;;;;;6.44;96.63;100859.34;10368341;28;20141;-81
2023/02/03 10:37:08;;;;;;;16.98;9.43;;;;;;;6.22;97.41;100881.88;10385194;28;20397;-82
2023/02/03 10:42:13;;;;;;;14.93;8.93;;;;;;;6.33;96.56;100887.47;10373242;28;20697;-85
2023/02/03 10:47:29;;;;;;;22.17;9.48;;;;;;;6.93;94.41;100910.81;10368847;28;20049;-81
2023/02/03 10:52:33;;;;;;;20.52;6.75;;;;;;;6.50;94.85;100893.69;10363300;28;20164;-80
2023/02/03 10:57:39;;;;;;;18.73;5.75;;;;;;;6.66;96.05;100880.34;10376456;28;20049;-81
2023/02/03 11:02:42;;;;;;;17.15;6.75;;;;;;;6.88;94.01;100898.69;10374815;28;20049;-82
2023/02/03 11:07:45;;;;;;;10.95;5.07;;;;;;;6.98;93.34;100914.09;10371095;28;20050;-81
2023/02/03 11:12:49;;;;;;;15.88;3.83;;;;;;;6.81;94.41;100904.34;10370960;28;20207;-82
2023/02/03 11:17:53;;;;;;;16.05;2.88;;;;;;;6.45;95.08;100915.31;10371665;28;20515;-81
2023/02/03 11:22:56;;;;;;;17.02;3.95;;;;;;;6.38;95.57;100924.59;10370135;28;20069;-81
2023/02/03 11:28:05;;;;;;;21.25;4.57;;;;;;;6.37;96.43;100910.38;10363975;28;20606;-80
2023/02/03 11:33:17;;;;;;;16.63;4.20;;;;;;;6.68;93.42;100924.69;10362830;28;20054;-82
2023/02/03 11:38:30;;;;;;;23.97;6.13;;;;;;;6.93;93.23;100915.31;10368448;28;20147;-81
2023/02/03 11:43:34;;;;;;;19.30;5.15;;;;;;;6.76;93.93;100917.09;10375615;28;20049;-79
2023/02/03 11:48:39;;;;;;;33.35;6.00;;;;;;;6.57;94.24;100924.44;10375677;28;20109;-79
2023/02/03 11:53:59;;;;;;;18.10;4.45;;;;;;;7.25;91.89;100932.16;10368994;28;20049;-79
2023/02/03 11:59:26;;;;;;;20.48;4.65;;;;;;;6.94;90.95;100935.72;10372637;28;20060;-78
2023/02/03 12:04:47;;;;;;;16.63;4.00;;;;;;;7.04;89.69;100924.44;10367655;28;20056;-78
2023/02/03 12:10:00;;;;;;;21.50;4.68;;;;;;;6.88;90.32;100920.91;10374470;28;20061;-80
2023/02/03 12:15:21;;;;;;;21.98;5.82;;;;;;;7.19;88.46;100941.41;10371912;28;20113;-80
2023/02/03 12:20:48;;;;;;;25.17;4.80;;;;;;;7.43;86.69;100964.94;10369632;28;20096;-79
2023/02/03 12:26:05;;;;;;;20.63;5.13;;;;;;;7.40;85.28;100978.50;10374997;28;20053;-80
2023/02/03 12:31:17;;;;;;;27.85;4.75;;;;;;;7.38;83.38;100978.59;10366693;28;20151;-79
2023/02/03 12:36:26;;;;;;;31.17;5.07;;;;;;;7.76;83.51;100986.16;10367868;28;20058;-79
2023/02/03 12:41:34;;;;;;;25.38;5.60;;;;;;;7.64;82.45;100982.41;10371738;28;20069;-79
2023/02/03 12:46:44;;;;;;;18.05;4.45;;;;;;;7.36;81.54;100985.84;10369114;28;20104;-80
2023/02/03 12:51:52;;;;;;;32.22;4.72;;;;;;;7.40;81.49;100989.19;10365277;28;20149;-80
2023/02/03 12:57:00;;;;;;;26.08;4.45;;;;;;;7.14;79.93;100974.69;10358785;28;20132;-79
2023/02/03 13:02:16;;;;;;;31.88;6.47;;;;;;;7.43;80.59;100970.28;10370054;28;20456;-79
2023/02/03 13:07:25;;;;;;;25.77;5.40;;;;;;;7.80;77.99;100982.38;10374543;28;20045;-79
2023/02/03 13:12:30;;;;;;;21.05;4.70;;;;;;;7.11;77.99;100978.38;10373620;28;20049;-78
2023/02/03 13:17:43;;;;;;;30.92;5.25;;;;;;;7.51;76.71;100952.00;10373071;28;20136;-79
2023/02/03 13:22:46;;;;;;;24.20;3.40;;;;;;;7.36;75.58;100968.94;10363889;28;20167;-78
2023/02/03 13:27:56;;;;;;;12.88;3.72;;;;;;;7.08;75.82;100941.16;10378211;28;20054;-79
2023/02/03 13:33:26;;;;;;;19.10;3.80;;;;;;;7.12;75.93;100977.41;10362377;28;20060;-79
2023/02/03 13:38:55;;;;;;;23.95;5.57;;;;;;;7.13;76.93;100964.91;10360439;28;20068;-78
2023/02/03 13:43:59;;;;;;;27.63;5.45;;;;;;;7.14;75.29;100978.19;10369426;28;20060;-79
2023/02/03 13:49:06;;;;;;;27.13;5.22;;;;;;;6.80;75.14;100966.72;10370643;28;20049;-79
2023/02/03 13:54:20;;;;;;;28.25;5.82;;;;;;;7.42;74.40;100966.78;10364866;28;20048;-78
2023/02/03 13:59:39;;;;;;;27.25;5.30;;;;;;;7.07;72.61;100963.47;10371686;28;20061;-79
2023/02/03 14:04:55;;;;;;;27.10;4.57;;;;;;;7.40;73.30;100981.16;10389587;28;20057;-78
2023/02/03 14:10:22;;;;;;;30.77;5.78;;;;;;;7.32;71.67;100997.66;10380084;28;20053;-78
2023/02/03 14:15:31;;;;;;;26.08;5.13;;;;;;;7.43;71.93;101013.06;10376182;28;20053;-79
2023/02/03 14:20:59;;;;;;;38.92;5.28;;;;;;;7.34;71.88;101013.59;10376963;28;20050;-78
2023/02/03 14:26:02;;;;;;;23.77;4.80;;;;;;;7.03;70.10;101026.91;10380681;28;20053;-78
2023/02/03 14:31:14;;;;;;;25.30;5.50;;;;;;;7.14;70.17;101050.34;10365819;28;21238;-79
2023/02/03 14:36:41;;;;;;;30.10;3.97;;;;;;;7.27;70.79;101047.84;10366999;28;20075;-80
2023/02/03 14:41:53;;;;;;;24.98;4.45;;;;;;;6.93;70.82;101075.56;10374188;28;20180;-77
2023/02/03 14:47:10;;;;;;;22.02;3.75;;;;;;;7.36;70.78;101067.84;10363322;28;20056;-78
2023/02/03 14:52:41;;;;;;;29.13;4.60;;;;;;;7.17;69.54;101078.72;10353175;28;20106;-80
2023/02/03 14:57:48;;;;;;;24.58;4.05;;;;;;;7.04;71.34;101089.19;10358717;28;20484;-77
2023/02/03 15:03:21;;;;;;;27.98;4.15;;;;;;;7.22;70.90;101120.25;10362000;28;20057;-79
2023/02/03 15:08:35;;;;;;;26.45;3.83;;;;;;;6.96;69.89;101116.31;10350979;28;20104;-77
2023/02/03 15:13:38;;;;;;;28.10;4.60;;;;;;;7.15;68.50;101121.53;10369132;28;20520;-79
2023/02/03 15:18:41;;;;;;;23.13;4.82;;;;;;;7.02;67.33;101109.78;10377144;28;20096;-78
2023/02/03 15:23:49;;;;;;;18.13;3.90;;;;;;;6.63;65.97;101118.97;10363934;28;20141;-79
2023/02/03 15:28:57;;;;;;;26.85;4.15;;;;;;;6.87;65.62;101131.97;10380636;28;20053;-79
2023/02/03 15:34:05;;;;;;;21.10;3.10;;;;;;;6.81;65.54;101131.34;10379155;28;20045;-79
2023/02/03 15:39:21;;;;;;;17.77;3.13;;;;;;;7.03;64.39;101146.25;10379828;28;20041;-78
2023/02/03 15:44:29;;;;;;;17.98;3.53;;;;;;;6.83;63.71;101152.66;10382361;28;20108;-78
2023/02/03 15:49:37;;;;;;;23.33;3.15;;;;;;;6.61;63.80;101144.91;10391225;28;20049;-79
2023/02/03 15:54:52;;;;;;;21.63;3.92;;;;;;;6.69;64.19;101150.72;10368771;28;20046;-78
2023/02/03 15:59:58;;;;;;;30.58;5.78;;;;;;;6.76;64.20;101154.75;10376390;28;20068;-79
2023/02/03 16:05:04;;;;;;;28.70;4.88;;;;;;;6.42;65.70;101173.47;10380467;28;20145;-78
2023/02/03 16:15:37;;;;;;;21.90;3.63;;;;;;;6.26;66.12;101195.59;10356773;28;20464;-78
2023/02/03 16:20:49;;;;;;;27.15;4.85;;;;;;;6.38;65.28;101204.78;10350323;28;20502;-80
2023/02/03 16:26:05;;;;;;;27.87;4.80;;;;;;;6.27;66.03;101207.13;10351726;28;20108;-77
2023/02/03 16:52:59;;;;;;;26.83;5.03;;;;;;;5.99;66.29;101223.66;10357941;28;21284;-80
2023/02/03 16:58:01;;;;;;;27.17;4.80;;;;;;;6.07;65.80;101211.66;10360404;28;20057;-80
2023/02/03 17:03:06;;;;;;;29.70;6.03;;;;;;;6.05;65.30;101218.88;10363475;28;20531;-78
2023/02/03 17:08:09;;;;;;;26.13;3.80;;;;;;;5.64;65.04;101215.53;10353005;28;20050;-79
2023/02/03 17:13:12;;;;;;;25.00;4.30;;;;;;;6.30;64.34;101223.00;10356714;28;20255;-79
2023/02/03 17:18:16;;;;;;;24.63;3.65;;;;;;;6.18;65.05;101232.47;10353818;28;20050;-79
2023/02/03 17:23:19;;;;;;;26.30;3.92;;;;;;;6.34;64.77;101249.47;10344651;28;20038;-79
2023/02/03 17:28:22;;;;;;;28.02;4.45;;;;;;;6.14;66.44;101255.78;10327716;28;20149;-79
2023/02/03 17:33:27;;;;;;;21.23;4.55;;;;;;;6.39;65.63;101260.78;10345154;28;20058;-78
2023/02/03 17:38:30;;;;;;;29.63;4.80;;;;;;;6.17;66.14;101276.97;10344915;28;20172;-79
2023/02/03 17:43:32;;;;;;;24.70;3.80;;;;;;;6.22;66.78;101282.06;10345334;28;20145;-79
2023/02/03 17:48:57;;;;;;;27.20;4.47;;;;;;;6.01;66.71;101299.13;10344108;28;20167;-79
2023/02/03 17:54:17;;;;;;;23.52;3.70;;;;;;;5.97;66.61;101287.72;10324514;28;20476;-78
2023/02/03 17:59:20;;;;;;;22.83;4.15;;;;;;;5.68;67.78;101297.97;10326961;28;20582;-79
2023/02/03 18:04:24;;;;;;;25.35;4.82;;;;;;;5.83;67.82;101291.03;10343226;28;20070;-79
2023/02/03 18:09:27;;;;;;;25.50;4.20;;;;;;;6.21;66.83;101304.38;10343845;28;20069;-79
2023/02/03 18:14:30;;;;;;;23.85;3.92;;;;;;;5.62;67.29;101313.34;10342981;28;20041;-79
2023/02/03 18:19:34;;;;;;;22.60;4.75;;;;;;;6.04;66.42;101323.84;10342446;28;20041;-79
2023/02/03 18:24:38;;;;;;;27.98;4.22;;;;;;;5.97;66.21;101346.41;10341185;28;20053;-79
2023/02/03 18:29:43;;;;;;;26.17;4.03;;;;;;;5.73;67.34;101340.38;10344174;28;20056;-79
2023/02/03 18:34:47;;;;;;;26.88;6.10;;;;;;;5.78;67.97;101354.38;10338562;28;20104;-79
2023/02/03 18:39:50;;;;;;;24.65;4.07;;;;;;;5.98;67.18;101349.94;10312792;28;20058;-79
2023/02/03 18:44:53;;;;;;;20.10;3.97;;;;;;;5.80;67.32;101360.50;10326334;28;20632;-78
2023/02/03 18:49:57;;;;;;;21.92;4.05;;;;;;;5.97;66.55;101349.06;10324499;28;20046;-77
2023/02/03 18:55:00;;;;;;;31.42;4.20;;;;;;;6.06;66.42;101372.66;10315530;28;20404;-77
2023/02/03 19:00:04;;;;;;;29.33;4.43;;;;;;;5.80;66.39;101388.97;10311138;28;20054;-78
2023/02/03 19:05:10;;;;;;;23.63;3.65;;;;;;;5.83;66.15;101407.50;10331429;28;20045;-78
2023/02/03 19:10:13;;;;;;;25.88;3.95;;;;;;;5.90;67.04;101415.16;10330805;28;20060;-78
2023/02/03 19:15:17;;;;;;;23.63;4.13;;;;;;;5.87;66.40;101423.31;10340387;28;20052;-77
2023/02/03 19:20:21;;;;;;;28.65;5.18;;;;;;;6.01;66.26;101429.84;10334528;28;20061;-77
2023/02/03 19:25:25;;;;;;;21.23;3.50;;;;;;;5.92;66.60;101431.97;10335132;28;20046;-78
2023/02/03 19:30:28;;;;;;;20.85;4.20;;;;;;;6.08;66.33;101436.59;10333016;28;20041;-78
2023/02/03 19:35:32;;;;;;;22.55;4.38;;;;;;;6.03;66.32;101438.59;10337495;28;22391;-79
2023/02/03 19:40:35;;;;;;;24.60;4.57;;;;;;;6.07;66.07;101453.56;10337686;28;20065;-78
2023/02/03 19:45:38;;;;;;;22.63;4.60;;;;;;;5.60;67.26;101456.53;10338177;28;20050;-78
2023/02/03 19:50:45;;;;;;;24.65;4.13;;;;;;;5.57;66.89;101444.19;10341135;28;20053;-78
2023/02/03 19:55:48;;;;;;;22.55;3.53;;;;;;;6.03;66.10;101443.94;10345306;28;20070;-77
2023/02/03 20:00:51;;;;;;;28.77;4.45;;;;;;;5.79;66.44;101457.44;10333566;28;20424;-78
2023/02/03 20:05:55;;;;;;;25.73;4.47;;;;;;;5.81;66.70;101465.38;10328074;28;20062;-78
2023/02/03 20:10:58;;;;;;;29.33;5.15;;;;;;;5.42;67.06;101482.16;10327557;28;20053;-79
2023/02/03 20:16:01;;;;;;;24.55;5.47;;;;;;;5.27;68.20;101455.22;10334892;28;20050;-78
2023/02/03 20:21:05;;;;;;;27.80;4.13;;;;;;;5.41;67.59;101470.63;10336061;28;20436;-78
2023/02/03 20:26:09;;;;;;;22.20;4.28;;;;;;;5.73;66.32;101471.91;10337446;28;21231;-79
2023/02/03 20:31:13;;;;;;;22.70;4.18;;;;;;;5.56;67.11;101474.44;10332121;28;20046;-79
2023/02/03 20:36:17;;;;;;;32.95;4.07;;;;;;;5.07;68.39;101497.78;10335993;28;20042;-79
2023/02/03 20:41:20;;;;;;;27.08;4.90;;;;;;;4.49;68.91;101510.69;10335775;28;20046;-78
2023/02/03 20:46:23;;;;;;;28.85;3.95;;;;;;;5.21;67.25;101498.13;10336725;28;20583;-78
2023/02/03 20:51:28;;;;;;;28.67;4.55;;;;;;;5.24;66.82;101513.97;10337403;28;20176;-78
2023/02/03 20:56:30;;;;;;;26.30;4.05;;;;;;;5.05;66.61;101518.31;10334134;28;20050;-78
2023/02/03 21:01:33;;;;;;;26.08;3.83;;;;;;;5.10;67.74;101534.06;10341685;28;20053;-78
2023/02/03 21:06:38;;;;;;;32.17;4.10;;;;;;;5.37;66.41;101524.97;10324631;28;20074;-79
2023/02/03 21:11:41;;;;;;;27.00;4.57;;;;;;;5.16;67.16;101548.03;10334432;28;20099;-79
2023/02/03 21:16:46;;;;;;;24.48;4.00;;;;;;;5.42;67.25;101556.78;10331812;28;20121;-77
2023/02/03 21:21:51;;;;;;;31.38;4.72;;;;;;;5.77;66.14;101544.63;10348611;28;20061;-80
2023/02/03 21:26:55;;;;;;;30.48;5.35;;;;;;;5.50;67.12;101560.84;10346055;28;20080;-78
2023/02/03 21:31:59;;;;;;;27.45;6.28;;;;;;;5.70;66.93;101559.16;10350323;28;20050;-78
2023/02/03 21:37:20;;;;;;;25.05;4.15;;;;;;;5.60;66.76;101557.81;10346180;28;20095;-78
2023/02/03 21:47:46;;;;;;;27.58;4.03;;;;;;;5.69;67.14;101563.63;10343719;28;20046;-78
2023/02/03 21:52:51;;;;;;;31.98;5.82;;;;;;;5.53;67.64;101567.84;10342163;28;20149;-78
2023/02/03 21:57:54;;;;;;;28.10;3.70;;;;;;;5.64;68.30;101570.06;10345582;28;20061;-79
2023/02/03 22:02:59;;;;;;;20.70;4.57;;;;;;;5.43;69.31;101590.47;10345132;28;20050;-78
2023/02/03 22:08:13;;;;;;;31.25;4.25;;;;;;;5.12;70.62;101588.16;10345271;28;20096;-78
2023/02/03 22:13:16;;;;;;;29.15;4.97;;;;;;;5.26;70.88;101600.00;10330190;28;20058;-78
2023/02/03 22:18:19;;;;;;;36.15;5.05;;;;;;;5.57;69.76;101598.81;10328549;28;20060;-79
2023/02/03 22:23:23;;;;;;;24.33;4.35;;;;;;;4.92;71.10;101604.91;10332498;28;20057;-78
2023/02/03 22:28:26;;;;;;;26.15;4.72;;;;;;;5.63;69.70;101605.69;10331306;28;20188;-78
2023/02/03 22:33:29;;;;;;;39.80;6.32;;;;;;;5.17;70.39;101611.03;10334279;28;20483;-79
2023/02/03 22:38:34;;;;;;;27.25;4.35;;;;;;;4.90;72.29;101609.41;10349347;28;20073;-78
2023/02/03 22:43:36;;;;;;;29.70;4.85;;;;;;;5.11;70.54;101605.97;10362939;28;20058;-78
2023/02/03 22:48:39;;;;;;;35.80;5.25;;;;;;;4.93;71.33;101625.25;10355785;28;20054;-78
2023/02/03 22:53:43;;;;;;;30.52;5.00;;;;;;;5.58;70.20;101637.84;10348816;28;20497;-78
2023/02/03 22:58:46;;;;;;;33.78;5.25;;;;;;;5.59;69.72;101649.38;10359904;28;20046;-79
2023/02/03 23:03:49;;;;;;;27.90;3.92;;;;;;;5.64;70.15;101644.72;10360746;28;20484;-79
2023/02/03 23:08:54;;;;;;;32.53;5.63;;;;;;;5.62;70.24;101649.25;10375259;28;20049;-79
2023/02/03 23:13:57;;;;;;;38.38;5.18;;;;;;;5.57;71.43;101652.13;10330729;28;20046;-79
2023/02/03 23:18:59;;;;;;;31.00;5.25;;;;;;;5.38;72.63;101675.97;10356075;28;20042;-79
2023/02/03 23:24:04;;;;;;;32.67;6.57;;;;;;;5.41;73.49;101685.63;10364657;28;20042;-80
2023/02/03 23:29:07;;;;;;;27.63;3.95;;;;;;;5.32;74.06;101691.28;10365317;28;20042;-79
2023/02/03 23:39:31;;;;;;;48.70;7.10;;;;;;;5.10;75.57;101700.13;10367597;28;20097;-79
2023/02/03 23:44:34;;;;;;;31.45;5.32;;;;;;;4.98;76.24;101713.84;10363708;28;20037;-78
2023/02/03 23:49:37;;;;;;;27.20;4.15;;;;;;;5.16;74.78;101725.66;10352416;28;20038;-79
2023/02/03 23:54:41;;;;;;;23.60;4.45;;;;;;;5.27;74.29;101739.44;10347797;28;20046;-79
2023/02/03 23:59:44;;;;;;;20.15;3.00;;;;;;;5.16;74.00;101737.19;10369803;28;20039;-78
